Time;durP1;ratioP1;P1;durP2;ratioP2;P2;SDS_P1;SDS_P2;PMS_P1;PMS_P2;Temp;Humidity;BMP_temperature;BMP_pressure;BME280_temperature;BME280_humidity;BME280_pressure;Samples;Min_cycle;Max_cycle;Signal;HPM_P1;HPM_P2
2021/12/04 00:01:10;;;;;;;0.57;0.57;;;;;;;;;;4991904;28;20107;-74
2021/12/04 00:03:39;;;;;;;1.77;0.85;;;;;;;;;;4975261;28;20125;-74
2021/12/04 00:06:13;;;;;;;0.68;0.50;;;;;;;;;;4974638;28;20049;-74
2021/12/04 00:08:46;;;;;;;0.98;0.40;;;;;;;;;;4992211;28;20150;-75
2021/12/04 00:11:17;;;;;;;1.85;0.80;;;;;;;;;;4973693;28;20057;-74
2021/12/04 00:13:45;;;;;;;1.48;0.80;;;;;;;;;;4988848;28;20579;-73
2021/12/04 00:16:13;;;;;;;1.85;1.08;;;;;;;;;;4990950;28;20058;-75
2021/12/04 00:18:41;;;;;;;2.88;0.73;;;;;;;;;;4973360;28;20046;-75
2021/12/04 00:21:09;;;;;;;0.75;0.50;;;;;;;;;;4973593;28;20053;-74
2021/12/04 00:23:38;;;;;;;0.95;0.20;;;;;;;;;;4956658;28;20046;-74
2021/12/04 00:26:06;;;;;;;1.00;0.30;;;;;;;;;;4940352;28;20121;-74
2021/12/04 00:28:33;;;;;;;0.95;0.50;;;;;;;;;;4973394;28;20470;-74
2021/12/04 00:31:07;;;;;;;1.27;0.75;;;;;;;;;;4974477;28;20097;-74
2021/12/04 00:33:37;;;;;;;1.02;0.47;;;;;;;;;;4974251;28;20084;-72
2021/12/04 00:36:13;;;;;;;0.55;0.50;;;;;;;;;;4974346;28;20046;-73
2021/12/04 00:49:45;;;;;;;1.52;1.00;;;;;;;;;;4957179;28;20115;-73
2021/12/04 00:52:13;;;;;;;1.05;0.90;;;;;;;;;;4941397;28;20418;-74
2021/12/04 00:54:42;;;;;;;0.50;0.30;;;;;;;;;;4957427;28;20421;-75
2021/12/04 00:57:10;;;;;;;1.13;0.52;;;;;;;;;;4973461;28;20051;-72
2021/12/04 00:59:37;;;;;;;2.80;0.40;;;;;;;;;;4956774;28;20039;-74
2021/12/04 01:02:05;;;;;;;0.70;0.50;;;;;;;;;;4956994;28;20035;-74
2021/12/04 01:04:33;;;;;;;0.57;0.22;;;;;;;;;;4974173;28;20070;-73
2021/12/04 01:07:01;;;;;;;0.40;0.20;;;;;;;;;;4956997;28;20050;-75
2021/12/04 01:09:28;;;;;;;0.40;0.20;;;;;;;;;;4974103;28;20057;-75
2021/12/04 01:11:56;;;;;;;0.35;0.20;;;;;;;;;;4973857;28;20049;-77
2021/12/04 01:14:28;;;;;;;0.30;0.30;;;;;;;;;;4974120;28;20047;-76
2021/12/04 01:16:57;;;;;;;0.30;0.30;;;;;;;;;;4974182;28;20050;-74
2021/12/04 01:19:29;;;;;;;0.28;0.20;;;;;;;;;;4973794;28;20035;-73
2021/12/04 01:21:57;;;;;;;0.65;0.20;;;;;;;;;;4956581;28;20387;-74
2021/12/04 01:24:24;;;;;;;0.30;0.30;;;;;;;;;;4972913;28;20042;-74
2021/12/04 01:26:52;;;;;;;0.17;0.17;;;;;;;;;;4956539;28;20043;-74
2021/12/04 01:29:20;;;;;;;0.35;0.20;;;;;;;;;;4956970;28;20427;-76
2021/12/04 01:31:48;;;;;;;0.10;0.10;;;;;;;;;;4974239;28;20042;-74
2021/12/04 01:34:15;;;;;;;0.32;0.32;;;;;;;;;;4956454;28;20054;-75
2021/12/04 01:36:44;;;;;;;0.55;0.43;;;;;;;;;;4972422;28;20061;-76
2021/12/04 01:39:12;;;;;;;0.25;0.20;;;;;;;;;;4974080;28;20039;-76
2021/12/04 01:41:41;;;;;;;0.30;0.20;;;;;;;;;;4960351;28;20039;-74
2021/12/04 01:44:09;;;;;;;0.30;0.20;;;;;;;;;;4977778;28;20045;-75
2021/12/04 01:46:36;;;;;;;0.10;0.10;;;;;;;;;;4977412;28;20073;-74
2021/12/04 01:49:05;;;;;;;0.80;0.30;;;;;;;;;;4977856;28;20043;-71
2021/12/04 01:51:34;;;;;;;10.32;0.43;;;;;;;;;;4977929;28;20122;-77
2021/12/04 01:54:02;;;;;;;0.47;0.20;;;;;;;;;;4977278;28;20050;-74
2021/12/04 01:56:31;;;;;;;0.10;0.10;;;;;;;;;;4960176;28;20050;-76
2021/12/04 01:58:59;;;;;;;1.80;0.40;;;;;;;;;;4960009;28;20042;-74
2021/12/04 02:01:27;;;;;;;0.57;0.30;;;;;;;;;;4977293;28;20043;-76
2021/12/04 02:03:54;;;;;;;0.40;0.40;;;;;;;;;;4960220;28;20395;-71
2021/12/04 02:06:22;;;;;;;2.65;1.30;;;;;;;;;;4944067;28;20038;-73
2021/12/04 02:08:51;;;;;;;2.28;1.30;;;;;;;;;;4958702;28;20065;-71
2021/12/04 02:11:18;;;;;;;1.92;1.05;;;;;;;;;;4976995;28;20058;-71
2021/12/04 02:13:46;;;;;;;0.65;0.52;;;;;;;;;;4960052;28;20482;-75
2021/12/04 02:16:18;;;;;;;0.20;0.20;;;;;;;;;;4976953;28;20122;-75
2021/12/04 02:18:45;;;;;;;1.00;0.30;;;;;;;;;;4978748;28;20058;-72
2021/12/04 02:21:14;;;;;;;3.10;0.50;;;;;;;;;;4987460;28;20053;-75
2021/12/04 02:23:41;;;;;;;1.25;0.50;;;;;;;;;;4958202;28;20434;-72
2021/12/04 02:26:09;;;;;;;0.38;0.38;;;;;;;;;;4959387;28;20059;-75
2021/12/04 02:28:37;;;;;;;0.43;0.43;;;;;;;;;;4976820;28;20034;-74
2021/12/04 02:31:05;;;;;;;1.95;0.50;;;;;;;;;;4944008;28;20057;-72
2021/12/04 02:33:32;;;;;;;1.35;0.50;;;;;;;;;;4958964;28;20039;-75
2021/12/04 02:36:02;;;;;;;1.45;0.50;;;;;;;;;;4959179;28;20422;-75
2021/12/04 02:38:30;;;;;;;0.50;0.35;;;;;;;;;;4976242;28;20047;-72
2021/12/04 02:41:00;;;;;;;0.38;0.38;;;;;;;;;;4975158;28;20050;-72
2021/12/04 02:43:28;;;;;;;1.65;0.50;;;;;;;;;;4959549;28;20459;-75
2021/12/04 02:45:56;;;;;;;0.52;0.45;;;;;;;;;;4959073;28;20113;-75
2021/12/04 02:48:23;;;;;;;0.45;0.25;;;;;;;;;;4976432;28;20038;-75
2021/12/04 02:50:53;;;;;;;0.35;0.20;;;;;;;;;;4975629;28;20487;-72
2021/12/04 02:53:21;;;;;;;0.43;0.30;;;;;;;;;;4976013;28;20039;-75
2021/12/04 02:55:50;;;;;;;0.95;0.40;;;;;;;;;;4976387;28;20043;-75
2021/12/04 02:58:20;;;;;;;0.57;0.28;;;;;;;;;;4975833;28;20125;-74
2021/12/04 03:00:50;;;;;;;0.98;0.30;;;;;;;;;;4958823;28;20051;-75
2021/12/04 03:03:20;;;;;;;0.52;0.10;;;;;;;;;;4975929;28;20035;-75
2021/12/04 03:05:50;;;;;;;0.30;0.30;;;;;;;;;;4958838;28;20133;-75
2021/12/04 03:08:22;;;;;;;1.70;0.30;;;;;;;;;;4958392;28;20166;-75
2021/12/04 03:10:51;;;;;;;1.75;0.40;;;;;;;;;;4974579;28;20051;-75
2021/12/04 03:13:21;;;;;;;0.30;0.30;;;;;;;;;;4974509;28;20114;-75
2021/12/04 03:15:57;;;;;;;0.30;0.30;;;;;;;;;;4976048;28;20494;-75
2021/12/04 03:18:26;;;;;;;0.50;0.40;;;;;;;;;;4975859;28;20047;-75
2021/12/04 03:20:56;;;;;;;1.33;0.40;;;;;;;;;;4974986;28;20043;-75
2021/12/04 03:23:29;;;;;;;0.30;0.30;;;;;;;;;;4958409;28;20053;-75
2021/12/04 03:25:59;;;;;;;1.25;0.30;;;;;;;;;;4975552;28;20513;-72
2021/12/04 03:28:27;;;;;;;0.75;0.32;;;;;;;;;;4976108;28;20053;-73
2021/12/04 03:31:06;;;;;;;1.17;0.90;;;;;;;;;;4974571;28;20046;-75
2021/12/04 03:41:54;;;;;;;3.00;1.90;;;;;;;;;;4958036;28;20486;-75
2021/12/04 03:44:23;;;;;;;4.80;2.45;;;;;;;;;;4975711;28;20119;-75
2021/12/04 03:46:51;;;;;;;2.78;2.50;;;;;;;;;;4975005;28;20065;-72
2021/12/04 03:49:19;;;;;;;0.30;0.30;;;;;;;;;;4975286;28;20042;-72
2021/12/04 03:51:46;;;;;;;0.88;0.80;;;;;;;;;;4957990;28;20131;-75
2021/12/04 03:54:14;;;;;;;1.27;1.20;;;;;;;;;;4942459;28;20053;-72
2021/12/04 03:56:41;;;;;;;2.60;2.40;;;;;;;;;;4974824;28;20382;-72
2021/12/04 03:59:09;;;;;;;2.78;2.47;;;;;;;;;;4974844;28;20043;-75
2021/12/04 04:01:36;;;;;;;3.58;3.03;;;;;;;;;;4975120;28;20061;-72
2021/12/04 04:04:05;;;;;;;4.07;2.50;;;;;;;;;;4974929;28;20034;-75
2021/12/04 04:06:33;;;;;;;2.85;1.67;;;;;;;;;;4957025;28;20125;-75
2021/12/04 04:09:03;;;;;;;1.17;0.85;;;;;;;;;;4957183;28;20155;-75
2021/12/04 04:11:35;;;;;;;1.98;0.70;;;;;;;;;;4974846;28;20049;-75
2021/12/04 04:14:06;;;;;;;1.13;0.93;;;;;;;;;;4957513;28;20082;-75
2021/12/04 04:16:39;;;;;;;1.13;1.00;;;;;;;;;;4941492;28;20043;-72
2021/12/04 04:19:07;;;;;;;0.90;0.90;;;;;;;;;;4957088;28;20066;-72
2021/12/04 04:21:39;;;;;;;1.88;0.60;;;;;;;;;;4974609;28;20045;-75
2021/12/04 04:24:08;;;;;;;0.30;0.30;;;;;;;;;;4974927;28;20047;-72
2021/12/04 04:26:36;;;;;;;0.20;0.20;;;;;;;;;;4957693;28;20042;-76
2021/12/04 04:29:05;;;;;;;0.43;0.20;;;;;;;;;;4957191;28;20057;-75
2021/12/04 04:31:33;;;;;;;0.20;0.20;;;;;;;;;;4974443;28;20045;-75
2021/12/04 04:34:06;;;;;;;1.45;0.40;;;;;;;;;;4993339;28;20097;-75
2021/12/04 05:11:21;;;;;;;1.70;1.60;;;;;;;;;;4975598;28;20573;-75
2021/12/04 05:13:50;;;;;;;0.88;0.80;;;;;;;;;;4994641;28;20190;-75
2021/12/04 05:16:21;;;;;;;1.63;0.80;;;;;;;;;;4982330;28;20046;-75
2021/12/04 05:18:59;;;;;;;1.17;1.00;;;;;;;;;;4999576;28;20046;-72
2021/12/04 05:21:28;;;;;;;1.17;1.10;;;;;;;;;;4982002;28;20435;-72
2021/12/04 05:23:56;;;;;;;2.58;1.00;;;;;;;;;;4999261;28;20038;-75
2021/12/04 05:26:28;;;;;;;1.13;1.02;;;;;;;;;;4982585;28;20042;-74
2021/12/04 05:28:58;;;;;;;1.40;1.08;;;;;;;;;;4999476;28;20485;-75
2021/12/04 05:31:26;;;;;;;1.35;1.25;;;;;;;;;;4982248;28;20466;-75
2021/12/04 05:33:54;;;;;;;3.00;1.70;;;;;;;;;;4982529;28;20046;-75
2021/12/04 05:36:24;;;;;;;3.72;1.90;;;;;;;;;;4999687;28;20065;-75
2021/12/04 05:38:52;;;;;;;3.58;1.60;;;;;;;;;;4982090;28;20050;-75
2021/12/04 05:41:21;;;;;;;3.92;1.50;;;;;;;;;;4982407;28;20039;-75
2021/12/04 05:43:49;;;;;;;1.73;1.63;;;;;;;;;;4999757;28;20038;-75
2021/12/04 05:46:19;;;;;;;6.80;3.50;;;;;;;;;;4981589;28;20137;-73
2021/12/04 05:49:35;;;;;;;2.50;1.85;;;;;;;;;;4999619;28;20045;-75
2021/12/04 05:56:54;;;;;;;3.42;2.38;;;;;;;;;;4981936;28;20066;-75
2021/12/04 05:59:21;;;;;;;3.50;2.35;;;;;;;;;;4981909;28;20054;-75
2021/12/04 06:01:49;;;;;;;11.73;7.18;;;;;;;;;;4999078;28;20125;-75
2021/12/04 06:04:17;;;;;;;7.63;3.80;;;;;;;;;;4999704;28;20122;-75
2021/12/04 06:06:45;;;;;;;4.38;3.63;;;;;;;;;;4999393;28;20125;-74
2021/12/04 06:09:13;;;;;;;4.00;2.92;;;;;;;;;;4981964;28;20051;-76
2021/12/04 06:11:40;;;;;;;5.78;3.33;;;;;;;;;;4999412;28;20052;-76
2021/12/04 06:14:08;;;;;;;5.28;3.13;;;;;;;;;;4982351;28;20078;-75
2021/12/04 06:16:36;;;;;;;4.65;3.30;;;;;;;;;;4981317;28;20042;-73
2021/12/04 06:24:45;;;;;;;5.57;3.00;;;;;;;;;;4999138;28;20038;-76
2021/12/04 06:27:12;;;;;;;4.38;3.03;;;;;;;;;;4996291;28;20117;-76
2021/12/04 06:29:39;;;;;;;5.85;2.50;;;;;;;;;;4978162;28;20046;-76
2021/12/04 06:32:07;;;;;;;4.30;2.38;;;;;;;;;;4994248;28;20034;-76
2021/12/04 06:34:35;;;;;;;2.00;1.80;;;;;;;;;;4976651;28;20042;-77
2021/12/04 06:37:03;;;;;;;1.27;1.02;;;;;;;;;;4998474;28;20054;-74
2021/12/04 06:39:30;;;;;;;2.47;1.63;;;;;;;;;;4978296;28;20042;-76
2021/12/04 06:41:58;;;;;;;1.75;1.60;;;;;;;;;;5003421;28;20049;-76
2021/12/04 06:44:27;;;;;;;2.03;1.40;;;;;;;;;;5000550;28;20125;-72
2021/12/04 06:46:55;;;;;;;1.52;1.10;;;;;;;;;;5000945;28;20038;-76
2021/12/04 06:49:27;;;;;;;1.52;1.30;;;;;;;;;;4995470;28;20038;-75
2021/12/04 06:51:59;;;;;;;0.95;0.88;;;;;;;;;;4985038;28;20074;-72
2021/12/04 06:54:31;;;;;;;3.70;1.13;;;;;;;;;;5001308;28;20046;-76
2021/12/04 06:56:59;;;;;;;1.50;1.27;;;;;;;;;;5010883;28;20080;-77
2021/12/04 06:59:30;;;;;;;3.40;1.63;;;;;;;;;;4994487;28;20038;-74
2021/12/04 07:01:58;;;;;;;3.13;1.02;;;;;;;;;;4983248;28;20056;-72
2021/12/04 07:04:34;;;;;;;1.45;1.08;;;;;;;;;;4988783;28;20077;-72
2021/12/04 07:07:14;;;;;;;1.63;1.40;;;;;;;;;;4997625;28;20041;-77
2021/12/04 07:09:41;;;;;;;5.57;1.65;;;;;;;;;;4994424;28;20042;-76
2021/12/04 07:12:10;;;;;;;5.38;2.60;;;;;;;;;;5002301;28;20034;-75
2021/12/04 07:14:39;;;;;;;6.18;2.80;;;;;;;;;;4983080;28;20046;-74
2021/12/04 07:17:08;;;;;;;5.05;3.13;;;;;;;;;;5000763;28;20478;-76
2021/12/04 07:19:36;;;;;;;4.18;3.10;;;;;;;;;;4994497;28;20045;-76
2021/12/04 07:22:03;;;;;;;4.03;2.70;;;;;;;;;;4977372;28;20109;-74
2021/12/04 07:24:32;;;;;;;6.13;2.50;;;;;;;;;;4994566;28;20039;-71
2021/12/04 07:26:59;;;;;;;6.80;3.20;;;;;;;;;;5000440;28;20026;-72
2021/12/04 07:29:27;;;;;;;4.13;2.72;;;;;;;;;;4993916;28;20532;-72
2021/12/04 07:31:57;;;;;;;5.90;2.70;;;;;;;;;;4982299;28;20038;-72
2021/12/04 07:34:25;;;;;;;2.60;1.77;;;;;;;;;;5002377;28;20057;-73
2021/12/04 07:36:52;;;;;;;4.93;1.92;;;;;;;;;;4997920;28;20041;-76
2021/12/04 07:39:20;;;;;;;4.35;1.30;;;;;;;;;;4992715;28;20038;-73
2021/12/04 07:41:48;;;;;;;3.35;1.67;;;;;;;;;;4980057;28;20038;-75
2021/12/04 07:44:16;;;;;;;2.60;1.45;;;;;;;;;;5004041;28;20406;-76
2021/12/04 07:46:45;;;;;;;2.92;1.10;;;;;;;;;;4978896;28;20042;-74
2021/12/04 07:49:12;;;;;;;2.88;1.10;;;;;;;;;;4996897;28;20054;-74
2021/12/04 07:51:40;;;;;;;1.92;0.70;;;;;;;;;;4995520;28;20478;-76
2021/12/04 07:54:09;;;;;;;3.10;1.10;;;;;;;;;;5005965;28;20410;-76
2021/12/04 07:56:37;;;;;;;3.15;1.25;;;;;;;;;;4994158;28;20042;-73
2021/12/04 07:59:05;;;;;;;4.38;1.77;;;;;;;;;;4998321;28;20064;-73
2021/12/04 08:01:36;;;;;;;2.28;1.13;;;;;;;;;;4993494;28;20049;-76
2021/12/04 08:04:05;;;;;;;1.85;1.00;;;;;;;;;;4980571;28;20038;-73
2021/12/04 08:06:33;;;;;;;4.05;1.40;;;;;;;;;;5081279;23;20017;-76
2021/12/04 08:09:01;;;;;;;3.25;1.60;;;;;;;;;;4988315;28;20429;-77
2021/12/04 08:11:32;;;;;;;4.32;2.00;;;;;;;;;;5028333;28;20128;-77
2021/12/04 08:14:01;;;;;;;5.07;3.15;;;;;;;;;;5027004;28;20038;-73
2021/12/04 08:16:32;;;;;;;4.38;3.00;;;;;;;;;;5012478;28;20125;-74
2021/12/04 08:19:00;;;;;;;3.92;2.38;;;;;;;;;;5018974;28;20042;-77
2021/12/04 08:21:30;;;;;;;3.15;1.92;;;;;;;;;;5010979;28;20037;-73
2021/12/04 08:23:58;;;;;;;3.65;1.50;;;;;;;;;;5026437;28;20034;-74
2021/12/04 08:26:29;;;;;;;2.80;1.45;;;;;;;;;;5012669;28;20405;-74
2021/12/04 08:28:56;;;;;;;5.60;1.50;;;;;;;;;;5001109;28;20121;-74
2021/12/04 08:31:25;;;;;;;2.42;1.00;;;;;;;;;;4994592;28;20100;-74
2021/12/04 08:33:58;;;;;;;3.70;1.17;;;;;;;;;;4994667;28;20045;-74
2021/12/04 08:36:25;;;;;;;;;;;;;;;;;;5012930;28;20044;-77
2021/12/04 08:38:57;;;;;;;1.58;0.52;;;;;;;;;;5013056;28;20445;-76
2021/12/04 08:41:27;;;;;;;5.03;1.00;;;;;;;;;;5011911;28;20048;-73
2021/12/04 08:43:55;;;;;;;0.73;0.60;;;;;;;;;;5012321;28;20044;-74
2021/12/04 08:46:24;;;;;;;2.70;0.55;;;;;;;;;;5012313;28;20096;-74
2021/12/04 08:48:58;;;;;;;2.75;0.80;;;;;;;;;;5011907;28;20104;-73
2021/12/04 08:51:31;;;;;;;3.30;0.82;;;;;;;;;;4994460;28;20132;-73
2021/12/04 08:54:03;;;;;;;2.05;0.88;;;;;;;;;;5009785;28;20045;-77
2021/12/04 08:56:33;;;;;;;1.65;0.93;;;;;;;;;;4994207;28;20046;-77
2021/12/04 08:59:01;;;;;;;1.73;1.23;;;;;;;;;;5012164;28;20038;-77
2021/12/04 09:01:39;;;;;;;5.63;1.55;;;;;;;;;;4994413;28;20112;-73
2021/12/04 09:04:06;;;;;;;4.32;1.27;;;;;;;;;;5011599;28;20156;-76
2021/12/04 09:06:36;;;;;;;6.88;1.20;;;;;;;;;;5012353;28;20034;-77
2021/12/04 09:09:06;;;;;;;3.47;1.48;;;;;;;;;;5011710;28;20052;-73
2021/12/04 09:11:36;;;;;;;3.10;1.30;;;;;;;;;;5011950;28;20121;-77
2021/12/04 09:14:06;;;;;;;2.88;1.23;;;;;;;;;;4994090;28;20054;-76
2021/12/04 09:16:33;;;;;;;5.45;1.50;;;;;;;;;;5012184;28;20128;-76
2021/12/04 09:19:04;;;;;;;4.38;1.50;;;;;;;;;;4994953;28;20053;-73
2021/12/04 09:21:33;;;;;;;2.05;1.13;;;;;;;;;;4994797;28;20042;-76
2021/12/04 09:24:09;;;;;;;1.73;0.95;;;;;;;;;;4993473;28;20152;-73
2021/12/04 09:59:42;;;;;;;4.07;1.33;;;;;;;;;;5011804;28;20045;-73
2021/12/04 10:21:48;;;;;;;3.95;1.30;;;;;;;;;;4973574;28;20110;-73
2021/12/04 10:24:40;;;;;;;1.40;1.20;;;;;;;;;;4973283;28;20051;-77
2021/12/04 10:33:12;;;;;;;4.53;1.50;;;;;;;;;;4975344;28;20054;-77
2021/12/04 10:35:43;;;;;;;3.72;1.50;;;;;;;;;;4997063;28;20053;-77
2021/12/04 10:38:21;;;;;;;2.80;1.45;;;;;;;;;;5015192;28;20050;-78
2021/12/04 10:40:52;;;;;;;4.15;1.45;;;;;;;;;;4997410;28;20642;-77
2021/12/04 10:43:29;;;;;;;3.45;1.23;;;;;;;;;;5014754;28;20109;-77
2021/12/04 10:45:59;;;;;;;5.78;1.35;;;;;;;;;;4997318;28;20045;-77
2021/12/04 10:48:30;;;;;;;2.72;1.05;;;;;;;;;;5014538;28;20065;-73
2021/12/04 10:53:49;;;;;;;3.25;1.45;;;;;;;;;;5015119;28;20069;-71
2021/12/04 11:02:03;;;;;;;2.63;1.05;;;;;;;;;;5015152;28;20042;-75
2021/12/04 11:19:58;;;;;;;2.92;1.40;;;;;;;;;;5014446;28;20453;-77
2021/12/04 11:44:05;;;;;;;8.00;1.60;;;;;;;;;;5013796;28;20044;-71
2021/12/04 11:46:48;;;;;;;2.05;1.30;;;;;;;;;;5014005;28;20042;-70
2021/12/04 11:49:31;;;;;;;4.78;1.40;;;;;;;;;;4996219;28;20048;-76
2021/12/04 11:51:59;;;;;;;;;;;;;;;;;;5014669;28;20052;-74
2021/12/04 11:54:31;;;;;;;3.13;1.00;;;;;;;;;;5013787;28;19922;-76
2021/12/04 11:57:00;;;;;;;5.17;1.33;;;;;;;;;;5014237;28;20120;-76
2021/12/04 11:59:29;;;;;;;2.70;0.95;;;;;;;;;;4996249;28;20042;-70
2021/12/04 12:02:00;;;;;;;5.88;1.13;;;;;;;;;;4996392;28;20050;-74
2021/12/04 12:04:48;;;;;;;4.53;1.30;;;;;;;;;;4995429;28;20042;-75
2021/12/04 12:07:17;;;;;;;1.55;0.90;;;;;;;;;;4995963;28;20054;-75
2021/12/04 12:10:01;;;;;;;3.03;1.40;;;;;;;;;;5013454;28;20058;-72
2021/12/04 12:12:34;;;;;;;3.47;1.73;;;;;;;;;;5012401;28;20432;-76
2021/12/04 12:15:07;;;;;;;4.38;1.50;;;;;;;;;;4995845;28;20468;-75
2021/12/04 12:17:39;;;;;;;2.00;1.27;;;;;;;;;;4995741;28;20581;-71
2021/12/04 12:20:15;;;;;;;3.25;1.50;;;;;;;;;;5013556;28;20128;-71
2021/12/04 12:22:53;;;;;;;3.67;1.05;;;;;;;;;;4995389;28;20057;-72
2021/12/04 12:25:33;;;;;;;3.92;1.60;;;;;;;;;;4996183;28;20482;-71
2021/12/04 12:34:05;;;;;;;4.68;1.30;;;;;;;;;;5012871;28;20101;-76
2021/12/04 12:36:36;;;;;;;4.35;1.40;;;;;;;;;;4995479;28;20042;-77
2021/12/04 12:39:07;;;;;;;4.25;1.15;;;;;;;;;;5013256;28;20046;-71
2021/12/04 12:41:43;;;;;;;2.80;1.10;;;;;;;;;;4996140;28;20038;-75
2021/12/04 12:44:29;;;;;;;3.35;1.10;;;;;;;;;;5013664;28;20408;-75
2021/12/04 12:47:07;;;;;;;3.35;1.02;;;;;;;;;;5012416;28;20038;-71
2021/12/04 12:49:39;;;;;;;3.30;1.30;;;;;;;;;;5013254;28;20392;-71
2021/12/04 12:52:27;;;;;;;3.33;1.30;;;;;;;;;;4995521;28;20084;-77
2021/12/04 12:54:57;;;;;;;3.88;1.05;;;;;;;;;;5013302;28;20056;-70
2021/12/04 12:57:32;;;;;;;3.40;1.25;;;;;;;;;;5013003;28;20124;-71
2021/12/04 13:14:15;;;;;;;5.72;1.08;;;;;;;;;;5012775;28;20368;-71
2021/12/04 13:16:43;;;;;;;2.78;1.00;;;;;;;;;;5012874;28;20067;-77
2021/12/04 13:19:14;;;;;;;4.63;1.13;;;;;;;;;;5013016;28;20067;-71
2021/12/04 13:21:43;;;;;;;2.15;0.93;;;;;;;;;;5012521;28;20042;-71
2021/12/04 13:24:12;;;;;;;5.78;1.25;;;;;;;;;;5012836;28;20046;-71
2021/12/04 13:26:42;;;;;;;1.90;0.90;;;;;;;;;;4979608;28;20129;-71
2021/12/04 13:29:10;;;;;;;3.75;1.20;;;;;;;;;;5012820;28;20413;-77
2021/12/04 13:31:38;;;;;;;2.83;0.90;;;;;;;;;;4995451;28;20042;-71
2021/12/04 13:34:07;;;;;;;2.80;0.70;;;;;;;;;;5012713;28;20050;-75
2021/12/04 13:36:38;;;;;;;;;;;;;;;;;;5015362;28;20453;-77
2021/12/04 13:39:13;;;;;;;3.70;1.02;;;;;;;;;;5016631;28;20408;-71
2021/12/04 13:41:43;;;;;;;4.70;1.50;;;;;;;;;;5016305;28;20129;-77
2021/12/04 13:44:11;;;;;;;4.05;1.08;;;;;;;;;;4999593;28;20046;-71
2021/12/04 13:46:47;;;;;;;4.32;1.50;;;;;;;;;;4998668;28;20052;-77
2021/12/04 13:49:17;;;;;;;3.38;1.00;;;;;;;;;;5016792;28;20046;-77
2021/12/04 13:51:53;;;;;;;4.72;1.38;;;;;;;;;;5016527;28;20121;-71
2021/12/04 13:54:21;;;;;;;;;;;;;;;;;;4999313;28;20050;-76
2021/12/04 13:56:48;;;;;;;3.80;1.40;;;;;;;;;;5016705;28;20025;-75
2021/12/04 13:59:21;;;;;;;3.20;1.15;;;;;;;;;;5015810;28;20090;-76
2021/12/04 14:01:49;;;;;;;;;;;;;;;;;;5016487;28;20436;-71
2021/12/04 14:04:17;;;;;;;3.10;1.08;;;;;;;;;;4982739;28;19930;-71
2021/12/04 14:07:04;;;;;;;1.77;1.15;;;;;;;;;;4998835;28;20504;-71
2021/12/04 14:09:37;;;;;;;4.15;1.33;;;;;;;;;;5016499;28;20099;-71
2021/12/04 14:12:04;;;;;;;;;;;;;;;;;;4998985;28;20076;-71
2021/12/04 14:14:33;;;;;;;3.30;1.05;;;;;;;;;;5015307;28;19921;-77
2021/12/04 14:17:12;;;;;;;2.35;1.20;;;;;;;;;;5015971;28;20129;-71
2021/12/04 14:19:42;;;;;;;2.33;1.20;;;;;;;;;;5015518;28;20046;-77
2021/12/04 14:22:12;;;;;;;5.28;1.50;;;;;;;;;;5015839;28;20045;-71
2021/12/04 14:24:43;;;;;;;3.38;1.20;;;;;;;;;;4998198;28;20042;-71
2021/12/04 14:27:15;;;;;;;4.20;1.13;;;;;;;;;;5016020;28;20148;-71
2021/12/04 14:29:46;;;;;;;3.72;1.55;;;;;;;;;;5015590;28;20414;-77
2021/12/04 14:32:16;;;;;;;6.53;1.57;;;;;;;;;;5015552;28;20084;-77
2021/12/04 14:34:44;;;;;;;3.55;1.27;;;;;;;;;;4981656;28;20501;-77
2021/12/04 14:37:14;;;;;;;4.43;1.50;;;;;;;;;;5015335;28;20068;-75
2021/12/04 14:39:44;;;;;;;2.67;1.10;;;;;;;;;;5015814;28;20045;-76
2021/12/04 14:42:23;;;;;;;4.15;1.42;;;;;;;;;;5015857;28;20559;-76
2021/12/04 14:44:52;;;;;;;4.05;1.10;;;;;;;;;;5015184;28;20572;-76
2021/12/04 14:47:21;;;;;;;6.93;1.52;;;;;;;;;;4996432;28;20480;-75
2021/12/04 14:49:50;;;;;;;3.15;1.20;;;;;;;;;;4997914;28;20038;-76
2021/12/04 14:52:19;;;;;;;3.60;0.90;;;;;;;;;;5014971;28;20501;-76
2021/12/04 14:54:47;;;;;;;2.75;1.33;;;;;;;;;;4997901;28;20064;-72
2021/12/04 14:57:19;;;;;;;3.03;0.90;;;;;;;;;;5014594;28;20052;-72
2021/12/04 14:59:59;;;;;;;4.90;1.23;;;;;;;;;;5014806;28;20042;-76
2021/12/04 15:02:26;;;;;;;3.22;1.00;;;;;;;;;;4994170;28;20048;-75
2021/12/04 15:04:54;;;;;;;2.75;1.08;;;;;;;;;;5002054;28;20422;-76
2021/12/04 15:07:23;;;;;;;5.22;1.20;;;;;;;;;;4994167;28;20056;-72
2021/12/04 15:09:50;;;;;;;5.38;1.50;;;;;;;;;;5006082;28;20039;-71
2021/12/04 15:12:25;;;;;;;5.70;1.20;;;;;;;;;;5001510;28;20122;-75
2021/12/04 15:14:57;;;;;;;4.65;1.27;;;;;;;;;;4994968;28;20075;-72
2021/12/04 15:17:28;;;;;;;4.28;1.42;;;;;;;;;;5014786;28;20080;-76
2021/12/04 15:20:00;;;;;;;4.70;1.58;;;;;;;;;;4980820;28;20050;-71
2021/12/04 15:22:37;;;;;;;4.57;1.20;;;;;;;;;;5014440;28;20169;-71
2021/12/04 15:25:06;;;;;;;1.23;1.00;;;;;;;;;;5014199;28;20053;-75
2021/12/04 15:27:34;;;;;;;4.57;1.30;;;;;;;;;;4986144;28;20041;-70
2021/12/04 15:30:05;;;;;;;2.45;1.40;;;;;;;;;;5003757;28;20049;-71
2021/12/04 15:32:34;;;;;;;3.88;1.75;;;;;;;;;;4990289;28;20045;-74
2021/12/04 15:35:14;;;;;;;3.47;1.23;;;;;;;;;;4987703;28;20038;-71
2021/12/04 15:37:49;;;;;;;6.05;2.25;;;;;;;;;;4986670;28;20057;-74
2021/12/04 15:40:56;;;;;;;4.93;1.80;;;;;;;;;;5013953;28;20117;-72
2021/12/04 15:46:30;;;;;;;5.53;1.63;;;;;;;;;;5004075;28;20486;-79
2021/12/04 15:55:00;;;;;;;2.97;1.23;;;;;;;;;;5013576;28;20092;-77
2021/12/04 15:57:29;;;;;;;3.67;1.60;;;;;;;;;;5012451;28;20447;-78
2021/12/04 15:59:58;;;;;;;4.78;1.40;;;;;;;;;;5012826;28;20038;-76
2021/12/04 16:02:34;;;;;;;5.72;1.02;;;;;;;;;;4996571;28;20045;-78
2021/12/04 16:05:28;;;;;;;3.70;1.55;;;;;;;;;;4981216;28;20073;-74
2021/12/04 16:08:19;;;;;;;3.75;1.30;;;;;;;;;;5013106;28;20405;-76
2021/12/04 16:11:08;;;;;;;5.53;1.67;;;;;;;;;;5013161;28;20133;-72
2021/12/04 16:13:38;;;;;;;5.05;1.10;;;;;;;;;;4996447;28;20050;-75
2021/12/04 16:16:11;;;;;;;3.05;1.10;;;;;;;;;;4980361;28;20484;-75
2021/12/04 16:18:40;;;;;;;3.08;1.13;;;;;;;;;;5029712;28;20038;-76
2021/12/04 16:21:13;;;;;;;4.32;1.75;;;;;;;;;;5021807;28;20136;-71
2021/12/04 16:23:42;;;;;;;2.85;1.88;;;;;;;;;;4998293;28;20045;-67
2021/12/04 16:26:16;;;;;;;4.47;1.85;;;;;;;;;;4999300;28;20042;-69
2021/12/04 16:29:01;;;;;;;7.60;3.35;;;;;;;;;;5002811;28;20064;-68
2021/12/04 16:31:52;;;;;;;5.45;2.00;;;;;;;;;;4997154;28;20121;-70
2021/12/04 16:39:38;;;;;;;2.53;1.73;;;;;;;;;;4994477;28;20043;-68
2021/12/04 16:42:08;;;;;;;6.25;1.77;;;;;;;;;;4994505;28;20042;-70
2021/12/04 16:44:38;;;;;;;3.40;2.08;;;;;;;;;;5011390;28;20065;-70
2021/12/04 16:47:06;;;;;;;5.70;3.53;;;;;;;;;;5013221;28;20049;-68
2021/12/04 16:49:36;;;;;;;7.20;2.80;;;;;;;;;;5008737;28;20045;-68
2021/12/04 17:00:09;;;;;;;7.85;3.25;;;;;;;;;;5013017;28;20061;-70
2021/12/04 17:02:37;;;;;;;13.95;4.30;;;;;;;;;;5013372;28;20476;-68
2021/12/04 17:05:07;;;;;;;11.73;5.13;;;;;;;;;;5013473;28;20103;-70
2021/12/04 17:07:35;;;;;;;8.30;4.28;;;;;;;;;;5013498;28;20541;-68
2021/12/04 17:10:02;;;;;;;8.32;4.03;;;;;;;;;;5011899;28;20049;-67
2021/12/04 17:12:33;;;;;;;11.35;4.75;;;;;;;;;;5012440;28;20555;-69
2021/12/04 17:15:00;;;;;;;11.65;4.25;;;;;;;;;;5013117;28;20053;-67
2021/12/04 17:17:30;;;;;;;12.00;5.63;;;;;;;;;;5008240;28;20034;-68
2021/12/04 17:20:01;;;;;;;9.52;5.10;;;;;;;;;;5009495;28;20038;-69
2021/12/04 17:22:29;;;;;;;12.68;5.63;;;;;;;;;;5000260;28;20537;-69
2021/12/04 17:24:57;;;;;;;10.98;5.35;;;;;;;;;;5007344;28;20034;-69
2021/12/04 17:27:24;;;;;;;12.88;5.80;;;;;;;;;;5000929;28;20038;-67
2021/12/04 17:29:52;;;;;;;11.95;6.03;;;;;;;;;;5000419;28;20097;-69
2021/12/04 17:32:21;;;;;;;15.23;6.70;;;;;;;;;;5007474;28;20034;-69
2021/12/04 17:34:52;;;;;;;19.17;7.38;;;;;;;;;;5008684;28;20045;-68
2021/12/04 17:37:20;;;;;;;15.35;6.80;;;;;;;;;;5004733;28;20038;-69
2021/12/04 17:39:52;;;;;;;24.38;10.82;;;;;;;;;;5012103;28;20050;-68
2021/12/04 17:42:20;;;;;;;32.85;13.30;;;;;;;;;;5003660;28;20752;-68
2021/12/04 17:44:47;;;;;;;23.63;10.23;;;;;;;;;;5007545;28;20082;-69
2021/12/04 17:47:14;;;;;;;19.15;9.40;;;;;;;;;;5003739;28;20170;-67
2021/12/04 17:49:42;;;;;;;16.85;8.13;;;;;;;;;;4996813;28;20038;-69
2021/12/04 17:52:09;;;;;;;19.67;8.55;;;;;;;;;;4999549;28;20045;-69
2021/12/04 17:54:37;;;;;;;28.85;12.75;;;;;;;;;;5008792;28;20042;-70
2021/12/04 17:57:04;;;;;;;15.18;8.85;;;;;;;;;;5003608;28;20042;-67
2021/12/04 17:59:32;;;;;;;9.18;5.63;;;;;;;;;;5005484;28;20400;-69
2021/12/04 18:02:05;;;;;;;12.95;7.20;;;;;;;;;;5006924;28;20486;-69
2021/12/04 18:04:35;;;;;;;10.77;6.85;;;;;;;;;;5014019;28;20038;-69
2021/12/04 18:07:06;;;;;;;10.15;5.25;;;;;;;;;;4994050;28;20387;-68
2021/12/04 18:09:34;;;;;;;8.50;4.40;;;;;;;;;;5012526;28;20044;-69
2021/12/04 18:12:07;;;;;;;9.10;4.90;;;;;;;;;;5012273;28;20042;-67
2021/12/04 18:14:35;;;;;;;11.73;6.60;;;;;;;;;;5012295;28;20117;-67
2021/12/04 18:17:03;;;;;;;10.40;4.72;;;;;;;;;;5012275;28;20046;-69
2021/12/04 18:19:30;;;;;;;5.45;2.35;;;;;;;;;;5012836;28;20052;-69
2021/12/04 18:22:00;;;;;;;6.72;2.70;;;;;;;;;;4996605;28;20050;-69
2021/12/04 18:24:28;;;;;;;9.23;3.38;;;;;;;;;;5015836;28;20100;-66
2021/12/04 18:26:57;;;;;;;7.75;3.08;;;;;;;;;;5015737;28;20100;-69
2021/12/04 18:29:25;;;;;;;8.98;3.00;;;;;;;;;;4998663;28;20389;-69
2021/12/04 18:31:53;;;;;;;6.15;3.38;;;;;;;;;;5015584;28;20058;-70
2021/12/04 18:34:23;;;;;;;9.85;4.00;;;;;;;;;;5015878;28;20042;-70